Split Lake, Canada
Current Conditions -  °F | °C
As of 12:00 PM on Thursday 29 Jan 2015 (Local Time) from CYGX Reporting Station
Broken Clouds Broken Clouds  
Wind Chill: -37°   Ceiling: 10000
Heat Index: -15°   Visibility: 15mi
Dew Point: -24°   Wind: 13mph
Humidity: 64%   Direction: 270°W
Pressure: 30.35"   Gusts: NA
Location:  56.25°N, 96.1°W
Report Text: CYGX 291800Z 27011KT 15SM BKN100 M26/M31 A3035 RMK AC5 SLP299
Loading
Personal Weather Stations






























Interactive Weather Map New forecast layout! Learn more

10-Day Weather Forecast

Advertisements
Track Severe Weather on mobile